sensor_id;sensor_type;location;lat;lon;timestamp;P1;durP1;ratioP1;P2;durP2;ratioP2
14153;SDS011;7157;53.144;7.570;2024-03-08T00:08:22;33.25;;;13.43;;
14153;SDS011;7157;53.144;7.570;2024-03-08T00:18:26;33.88;;;14.35;;
14153;SDS011;7157;53.144;7.570;2024-03-08T00:28:30;31.58;;;14.18;;
14153;SDS011;7157;53.144;7.570;2024-03-08T00:38:34;31.63;;;13.48;;
14153;SDS011;7157;53.144;7.570;2024-03-08T00:48:37;26.98;;;12.55;;
14153;SDS011;7157;53.144;7.570;2024-03-08T00:58:41;32.85;;;12.38;;
14153;SDS011;7157;53.144;7.570;2024-03-08T01:08:44;28.40;;;12.63;;
14153;SDS011;7157;53.144;7.570;2024-03-08T01:18:48;24.67;;;11.55;;
14153;SDS011;7157;53.144;7.570;2024-03-08T01:28:51;32.05;;;13.70;;
14153;SDS011;7157;53.144;7.570;2024-03-08T01:38:56;38.17;;;12.23;;
14153;SDS011;7157;53.144;7.570;2024-03-08T01:48:59;25.88;;;11.30;;
14153;SDS011;7157;53.144;7.570;2024-03-08T01:59:04;28.08;;;12.13;;
14153;SDS011;7157;53.144;7.570;2024-03-08T02:09:09;26.23;;;10.52;;
14153;SDS011;7157;53.144;7.570;2024-03-08T02:19:13;32.58;;;11.10;;
14153;SDS011;7157;53.144;7.570;2024-03-08T02:29:17;28.02;;;10.43;;
14153;SDS011;7157;53.144;7.570;2024-03-08T02:39:21;23.67;;;10.05;;
14153;SDS011;7157;53.144;7.570;2024-03-08T02:49:25;20.35;;;10.27;;
14153;SDS011;7157;53.144;7.570;2024-03-08T02:59:28;21.25;;;9.32;;
14153;SDS011;7157;53.144;7.570;2024-03-08T03:09:32;30.85;;;10.52;;
14153;SDS011;7157;53.144;7.570;2024-03-08T03:19:36;28.38;;;10.65;;
14153;SDS011;7157;53.144;7.570;2024-03-08T03:29:43;25.17;;;10.57;;
14153;SDS011;7157;53.144;7.570;2024-03-08T03:39:47;20.15;;;9.82;;
14153;SDS011;7157;53.144;7.570;2024-03-08T03:49:52;29.77;;;9.90;;
14153;SDS011;7157;53.144;7.570;2024-03-08T03:59:55;22.50;;;9.50;;
14153;SDS011;7157;53.144;7.570;2024-03-08T04:10:01;24.88;;;9.82;;
14153;SDS011;7157;53.144;7.570;2024-03-08T04:20:05;20.60;;;9.13;;
14153;SDS011;7157;53.144;7.570;2024-03-08T04:30:12;26.17;;;9.25;;
14153;SDS011;7157;53.144;7.570;2024-03-08T04:40:16;22.10;;;10.75;;
14153;SDS011;7157;53.144;7.570;2024-03-08T04:50:21;17.55;;;9.23;;
14153;SDS011;7157;53.144;7.570;2024-03-08T05:00:24;26.42;;;10.13;;
14153;SDS011;7157;53.144;7.570;2024-03-08T05:10:29;18.83;;;9.52;;
14153;SDS011;7157;53.144;7.570;2024-03-08T05:20:31;21.25;;;9.75;;
14153;SDS011;7157;53.144;7.570;2024-03-08T05:30:36;25.80;;;9.38;;
14153;SDS011;7157;53.144;7.570;2024-03-08T05:40:40;36.20;;;8.60;;
14153;SDS011;7157;53.144;7.570;2024-03-08T05:50:46;20.58;;;9.65;;
14153;SDS011;7157;53.144;7.570;2024-03-08T06:00:49;20.17;;;9.63;;
14153;SDS011;7157;53.144;7.570;2024-03-08T06:10:55;26.35;;;11.52;;
14153;SDS011;7157;53.144;7.570;2024-03-08T06:21:00;21.35;;;10.00;;
14153;SDS011;7157;53.144;7.570;2024-03-08T06:31:04;21.27;;;9.88;;
14153;SDS011;7157;53.144;7.570;2024-03-08T06:41:08;22.05;;;9.95;;
14153;SDS011;7157;53.144;7.570;2024-03-08T06:51:17;19.23;;;10.00;;
14153;SDS011;7157;53.144;7.570;2024-03-08T07:01:21;26.90;;;11.48;;
14153;SDS011;7157;53.144;7.570;2024-03-08T07:11:25;25.65;;;10.40;;
14153;SDS011;7157;53.144;7.570;2024-03-08T07:21:28;25.70;;;10.38;;
14153;SDS011;7157;53.144;7.570;2024-03-08T07:31:32;29.05;;;11.25;;
14153;SDS011;7157;53.144;7.570;2024-03-08T07:41:46;28.15;;;12.30;;
14153;SDS011;7157;53.144;7.570;2024-03-08T07:51:50;27.90;;;13.10;;
14153;SDS011;7157;53.144;7.570;2024-03-08T08:01:54;21.92;;;11.15;;
14153;SDS011;7157;53.144;7.570;2024-03-08T08:11:58;24.67;;;11.45;;
14153;SDS011;7157;53.144;7.570;2024-03-08T08:22:03;25.40;;;11.00;;
14153;SDS011;7157;53.144;7.570;2024-03-08T08:32:07;23.17;;;12.43;;
14153;SDS011;7157;53.144;7.570;2024-03-08T08:42:10;19.60;;;10.02;;
14153;SDS011;7157;53.144;7.570;2024-03-08T08:52:15;29.70;;;12.90;;
14153;SDS011;7157;53.144;7.570;2024-03-08T09:02:18;16.77;;;8.30;;
14153;SDS011;7157;53.144;7.570;2024-03-08T09:12:23;26.00;;;12.73;;
14153;SDS011;7157;53.144;7.570;2024-03-08T09:22:26;23.80;;;11.82;;
14153;SDS011;7157;53.144;7.570;2024-03-08T09:32:30;23.55;;;11.95;;
14153;SDS011;7157;53.144;7.570;2024-03-08T09:42:33;30.33;;;13.52;;
14153;SDS011;7157;53.144;7.570;2024-03-08T09:52:40;25.75;;;12.82;;
14153;SDS011;7157;53.144;7.570;2024-03-08T10:02:45;24.17;;;13.10;;
14153;SDS011;7157;53.144;7.570;2024-03-08T10:12:49;23.70;;;12.40;;
14153;SDS011;7157;53.144;7.570;2024-03-08T10:22:52;21.20;;;10.35;;
14153;SDS011;7157;53.144;7.570;2024-03-08T10:33:11;28.65;;;12.73;;
14153;SDS011;7157;53.144;7.570;2024-03-08T10:43:16;24.15;;;12.68;;
14153;SDS011;7157;53.144;7.570;2024-03-08T10:53:30;25.55;;;12.55;;
14153;SDS011;7157;53.144;7.570;2024-03-08T11:03:45;23.73;;;11.75;;
14153;SDS011;7157;53.144;7.570;2024-03-08T11:13:55;22.52;;;12.50;;
14153;SDS011;7157;53.144;7.570;2024-03-08T11:23:59;20.38;;;11.65;;
14153;SDS011;7157;53.144;7.570;2024-03-08T11:34:03;25.10;;;14.32;;
14153;SDS011;7157;53.144;7.570;2024-03-08T11:44:17;18.67;;;13.77;;
14153;SDS011;7157;53.144;7.570;2024-03-08T11:54:23;18.92;;;14.35;;
14153;SDS011;7157;53.144;7.570;2024-03-08T12:04:26;20.10;;;14.05;;
14153;SDS011;7157;53.144;7.570;2024-03-08T12:14:30;18.80;;;14.23;;
14153;SDS011;7157;53.144;7.570;2024-03-08T12:24:34;20.05;;;14.65;;
14153;SDS011;7157;53.144;7.570;2024-03-08T12:34:40;17.30;;;13.82;;
14153;SDS011;7157;53.144;7.570;2024-03-08T12:44:42;19.15;;;15.20;;
14153;SDS011;7157;53.144;7.570;2024-03-08T12:54:49;22.58;;;15.07;;
14153;SDS011;7157;53.144;7.570;2024-03-08T13:04:51;20.58;;;14.43;;
14153;SDS011;7157;53.144;7.570;2024-03-08T13:15:00;19.60;;;13.07;;
14153;SDS011;7157;53.144;7.570;2024-03-08T13:25:03;19.95;;;13.95;;
14153;SDS011;7157;53.144;7.570;2024-03-08T13:35:08;21.52;;;14.65;;
14153;SDS011;7157;53.144;7.570;2024-03-08T13:45:13;20.27;;;14.07;;
14153;SDS011;7157;53.144;7.570;2024-03-08T13:55:20;19.17;;;13.32;;
14153;SDS011;7157;53.144;7.570;2024-03-08T14:05:24;18.77;;;14.18;;
14153;SDS011;7157;53.144;7.570;2024-03-08T14:15:29;20.83;;;14.40;;
14153;SDS011;7157;53.144;7.570;2024-03-08T14:25:32;19.38;;;14.38;;
14153;SDS011;7157;53.144;7.570;2024-03-08T14:35:36;18.25;;;13.02;;
14153;SDS011;7157;53.144;7.570;2024-03-08T14:45:39;18.27;;;12.50;;
14153;SDS011;7157;53.144;7.570;2024-03-08T14:55:45;17.70;;;12.52;;
14153;SDS011;7157;53.144;7.570;2024-03-08T15:05:49;20.25;;;12.60;;
14153;SDS011;7157;53.144;7.570;2024-03-08T15:15:53;20.55;;;11.93;;
14153;SDS011;7157;53.144;7.570;2024-03-08T15:25:57;19.55;;;13.27;;
14153;SDS011;7157;53.144;7.570;2024-03-08T15:36:02;19.50;;;13.05;;
14153;SDS011;7157;53.144;7.570;2024-03-08T15:46:09;25.67;;;12.65;;
14153;SDS011;7157;53.144;7.570;2024-03-08T15:56:14;20.38;;;11.60;;
14153;SDS011;7157;53.144;7.570;2024-03-08T16:06:17;23.08;;;12.38;;
14153;SDS011;7157;53.144;7.570;2024-03-08T16:16:24;21.70;;;12.30;;
14153;SDS011;7157;53.144;7.570;2024-03-08T16:26:27;23.17;;;11.85;;
14153;SDS011;7157;53.144;7.570;2024-03-08T16:36:35;22.75;;;11.70;;
14153;SDS011;7157;53.144;7.570;2024-03-08T16:46:41;25.38;;;12.07;;
14153;SDS011;7157;53.144;7.570;2024-03-08T16:56:45;25.17;;;12.57;;
14153;SDS011;7157;53.144;7.570;2024-03-08T17:06:48;19.77;;;11.48;;
14153;SDS011;7157;53.144;7.570;2024-03-08T17:16:52;29.52;;;12.38;;
14153;SDS011;7157;53.144;7.570;2024-03-08T17:26:57;25.00;;;12.38;;
14153;SDS011;7157;53.144;7.570;2024-03-08T17:37:02;25.75;;;13.27;;
14153;SDS011;7157;53.144;7.570;2024-03-08T17:47:07;30.73;;;14.25;;
14153;SDS011;7157;53.144;7.570;2024-03-08T17:57:11;29.58;;;13.65;;
14153;SDS011;7157;53.144;7.570;2024-03-08T18:07:15;21.42;;;11.50;;
14153;SDS011;7157;53.144;7.570;2024-03-08T18:17:19;26.52;;;13.48;;
14153;SDS011;7157;53.144;7.570;2024-03-08T18:27:22;25.45;;;12.57;;
14153;SDS011;7157;53.144;7.570;2024-03-08T18:37:31;24.70;;;12.77;;
14153;SDS011;7157;53.144;7.570;2024-03-08T18:47:33;25.45;;;12.55;;
14153;SDS011;7157;53.144;7.570;2024-03-08T18:57:41;28.67;;;13.27;;
14153;SDS011;7157;53.144;7.570;2024-03-08T19:07:46;22.45;;;12.60;;
14153;SDS011;7157;53.144;7.570;2024-03-08T19:17:53;23.20;;;12.02;;
14153;SDS011;7157;53.144;7.570;2024-03-08T19:27:57;27.10;;;12.38;;
14153;SDS011;7157;53.144;7.570;2024-03-08T19:38:03;22.35;;;11.82;;
14153;SDS011;7157;53.144;7.570;2024-03-08T19:48:09;24.45;;;11.88;;
14153;SDS011;7157;53.144;7.570;2024-03-08T19:58:20;56.13;;;14.10;;
14153;SDS011;7157;53.144;7.570;2024-03-08T20:08:23;17.58;;;9.27;;
14153;SDS011;7157;53.144;7.570;2024-03-08T20:18:32;20.70;;;10.25;;
14153;SDS011;7157;53.144;7.570;2024-03-08T20:28:36;25.88;;;10.18;;
14153;SDS011;7157;53.144;7.570;2024-03-08T20:38:44;22.38;;;10.90;;
14153;SDS011;7157;53.144;7.570;2024-03-08T20:48:47;23.45;;;10.35;;
14153;SDS011;7157;53.144;7.570;2024-03-08T20:58:52;19.35;;;9.63;;
14153;SDS011;7157;53.144;7.570;2024-03-08T21:08:55;21.77;;;9.77;;
14153;SDS011;7157;53.144;7.570;2024-03-08T21:18:59;22.23;;;10.20;;
14153;SDS011;7157;53.144;7.570;2024-03-08T21:29:02;19.60;;;9.25;;
14153;SDS011;7157;53.144;7.570;2024-03-08T21:39:07;25.00;;;10.00;;
14153;SDS011;7157;53.144;7.570;2024-03-08T21:49:12;18.60;;;9.18;;
14153;SDS011;7157;53.144;7.570;2024-03-08T21:59:17;29.27;;;10.18;;
14153;SDS011;7157;53.144;7.570;2024-03-08T22:09:20;22.42;;;9.70;;
14153;SDS011;7157;53.144;7.570;2024-03-08T22:19:25;23.60;;;10.13;;
14153;SDS011;7157;53.144;7.570;2024-03-08T22:29:28;20.02;;;9.07;;
14153;SDS011;7157;53.144;7.570;2024-03-08T22:39:33;23.15;;;8.93;;
14153;SDS011;7157;53.144;7.570;2024-03-08T22:49:36;15.57;;;7.80;;
14153;SDS011;7157;53.144;7.570;2024-03-08T22:59:42;19.48;;;9.10;;
14153;SDS011;7157;53.144;7.570;2024-03-08T23:09:50;21.80;;;9.05;;
14153;SDS011;7157;53.144;7.570;2024-03-08T23:19:57;19.60;;;9.30;;
14153;SDS011;7157;53.144;7.570;2024-03-08T23:30:00;18.33;;;8.80;;
14153;SDS011;7157;53.144;7.570;2024-03-08T23:40:13;22.60;;;9.68;;
14153;SDS011;7157;53.144;7.570;2024-03-08T23:50:17;16.65;;;8.30;;
